KMDH Weather | Aviation | SIU

Home
Southern Illinois University

CONTACT

SIU.EDU

Aviation - Weather

College of Applied Sciences and Arts

KMDH Weather

NOTICE: Although all weather products are taken from the National Weather Service, this data should be used only as a supplement to a formal weather briefing.

Last Updated: Thursday, July 19th, 2018, 7:27 pm
Information on this page is updated every 5 minutes.


METARS

KMDH 192352Z 13003KT 10SM CLR 29/23 A2985 RMK AO2 SLP103 T02890233 10311 20289

KMDH 192252Z 17006KT 10SM CLR 31/22 A2986 RMK AO2 SLP106 T03060217

KMDH 192152Z 14004KT 10SM CLR 30/22 A2989 RMK AO2 SLP116 T03000222

KMWA 200015Z AUTO 14003KT 10SM CLR 29/23 A2987 RMK AO2 LTG DSNT S T02900230

KMWA 192345Z 13007KT 10SM BKN150 29/23 A2987

KMWA 192245Z 14008KT 10SM BKN150 31/23 A2987

KMWA 192145Z 12008KT 10SM SCT049 SCT060 OVC085 30/22 A2990

KCGI 192353Z AUTO 00000KT 10SM CLR 30/24 A2984 RMK AO2 SLP101 T03000239 10322

KCGI 192253Z AUTO 16003KT 10SM SCT110 30/24 A2984 RMK AO2 LTG DSNT SE SLP102

KCGI 192153Z 21004KT 10SM CLR 31/23 A2987 RMK AO2 SLP112 T03060233

KSAR 200015Z AUTO 16005KT 10SM CLR 28/24 A2987 RMK AO2 T02800242

KSAR 192355Z AUTO 15004KT 10SM CLR 28/24 A2986 RMK AO2 T02810244 10294 20280

KSAR 192335Z AUTO 15005KT 10SM CLR 28/24 A2986 RMK AO2 T02830238

KSAR 192315Z AUTO 15005KT 10SM CLR 29/24 A2986 RMK AO2 T02860237

KSAR 192255Z AUTO 15005KT 10SM SCT050 29/24 A2986 RMK AO2 T02900237

KSAR 192235Z AUTO 15006KT 10SM SCT046 SCT050 29/24 A2988 RMK AO2 T02860237

KSAR 192215Z AUTO 15007KT 10SM SCT048 SCT100 29/24 A2989 RMK AO2 T02920236

KSAR 192155Z AUTO 14006KT 10SM CLR 29/24 A2989 RMK AO2 T02930242

KSAR 192135Z AUTO 12004KT 10SM CLR 29/24 A2989 RMK AO2 T02850239

KFAM 200004Z AUTO 18004KT 10SM FEW002 28/23 A2989 RMK AO2

KFAM 192356Z AUTO 16005KT 10SM CLR 28/24 A2988 RMK AO2 SLP106 60000 T02780239

KFAM 192256Z AUTO 17006KT 10SM BKN040 28/23 A2988 RMK AO2 SLP106 T02830233

KFAM 192156Z AUTO 18006KT 10SM CLR 29/23 A2990 RMK AO2 SLP111 T02940233

KMVN 192356Z AUTO 14005KT 10SM CLR 29/22 A2986 RMK AO2 SLP106 T02890222 10311

KMVN 192256Z AUTO 12005KT 10SM CLR 30/22 A2987 RMK AO2 SLP111 T03000217

KMVN 192156Z AUTO 11004KT 10SM SCT075 30/22 A2990 RMK AO2 SLP122 T03000222

KHSB 200015Z AUTO 14003KT 10SM CLR 28/24 A2987 RMK AO2 LTG DSNT S T02810235

KCIR 200015Z AUTO 00000KT 10SM CLR 25/22 A2985 RMK AO2 LTG DSNT S T02530224

KPAH 192353Z 14005KT 10SM -RA SCT043 BKN050 BKN060 28/23 A2984 RMK AO2 RAB42

KPOF 192353Z AUTO 19003KT 10SM CLR 31/25 A2983 RMK AO2 SLP095 T03060250 10328

KFAM 200004Z AUTO 18004KT 10SM FEW002 28/23 A2989 RMK AO2

KBLV 192356Z AUTO 19008KT 10SM CLR 29/23 A2982 RMK AO2 SLP097 T02860230 10302

KSUS 192354Z 20005KT 10SM CLR 29/22 A2982 RMK AO2 SLP089 60000 T02940222 10311

KCPS 192353Z VRB05KT 10SM CLR 29/23 A2983 RMK AO2 SLP097 T02890228 10306 20272

KSTL 192351Z 19010KT 10SM FEW035 BKN250 29/22 A2983 RMK AO2 SLP090 T02940222

KTBN 200005Z AUTO 19004KT 10SM CLR 23/22 A2990 RMK AO2 DZB03 SLP119

KVIH 192353Z AUTO 20009KT 10SM CLR 23/20 A2988 RMK AO2 SLP107 60010 T02280200

KENL 200015Z AUTO 00000KT 10SM CLR 28/23 A2985 RMK AO2 T02800230

KMTO 192353Z AUTO 17006KT 10SM CLR 27/20 A2986 RMK AO2 SLP106 T02720200 10289

KFWC 200015Z AUTO 12004KT 10SM CLR 27/21 A2985 RMK AO1 T02700214

KCUL 200014Z AUTO 12004KT 10SM CLR 27/23 A2986 RMK AO2

KEVV 192354Z 12006KT 10SM SCT070 29/20 A2988 RMK AO2 SLP112 60000 T02940200

KOWB 192356Z 10005KT 10SM BKN080 29/19 A2989 RMK AO2 SLP128 T02890194 10311

KEHR 192356Z AUTO 10SM CLR 28/22 A2988 RMK AO2 SLP122 T02830217 10306 20283

KCEY 200015Z AUTO 09003KT 10SM SCT050 BKN070 BKN090 28/25 A2987 RMK AO1

KHOP 192356Z AUTO 13005KT 10SM CLR 31/20 A2988 RMK AO2 SLP114 T03060199 10320

KMKL 192353Z AUTO 00000KT 10SM CLR 29/26 A2986 RMK AO2 SLP107 T02890256 10328

KDYR 192356Z AUTO 18003KT 10SM CLR 31/25 A2985 RMK AO2 LTG DSNT N AND NE SLP117

KBYH 192153Z 20009KT 10SM SCT100 BKN150 BKN250 33/23 A2986 RMK LAST

KARG 192356Z AUTO 18004KT 10SM 32/26 A2984 RMK AO2 SLP102 T03170256 10339 20311

KJBR 192353Z AUTO 16004KT 10SM CLR 31/27 A2983 RMK AO2 SLP099 T03110272 10328

KUNO 192353Z AUTO 29003KT 10SM CLR 29/23 A2990 RMK AO2 SLP109 T02940233 10322

KALN 192353Z 17010KT 10SM FEW035 BKN250 28/23 A2984

KALN 192353Z 17010KT 10SM FEW035 BKN250 28/23 A2984

KCOU 192354Z 19006KT 10SM CLR 26/22 A2985 RMK AO2 SLP098 T02610222 10278 20244

KSPI 192352Z 18011G20KT 10SM CLR 28/22 A2982 RMK AO2 SLP092 60000 T02780217

KAJG 200015Z AUTO 00000KT 10SM CLR 28/19 A2987 RMK AO2 T02800191

KM30 200015Z AUTO 00000KT 10SM SCT048 BKN120 29/23 A2986 RMK AO2 LTG DSNT S

KDEC 192354Z 17010KT 10SM CLR 27/19 A2984 RMK AO2 SLP101 T02720194 10289 20272

KIJX 200015Z AUTO 16009KT 10SM CLR 27/22 A2980 RMK AO2 LTG DSNT NW T02700218


TAFS

KEVV 192320Z 2000/2024 14004KT P6SM FEW070 BKN150

        FM200100 15003KT P6SM FEW110 BKN200

        FM200900 19006KT P6SM VCTS BKN060CB

        FM201500 21009G17KT P6SM SCT050

        FM201800 22010G18KT P6SM VCTS BKN050CB

        FM202200 23010KT P6SM SCT250

KCGI 192320Z 2000/2024 18003KT P6SM SCT100 BKN200

        FM201400 20007KT P6SM SCT050

KPAH 192320Z 2000/2024 16003KT P6SM VCTS SCT060CB BKN150

        FM200200 18003KT P6SM FEW100 BKN200

        FM201500 21008KT P6SM SCT050

        FM202000 20008KT P6SM VCTS BKN050CB

KSPI 192334Z 2000/2024 18010G20KT P6SM SCT040 BKN100

        FM200200 16010KT P6SM VCTS SCT040CB BKN080

        FM200600 19009KT P6SM SCT050 BKN150

        FM201500 24014G22KT P6SM SCT050 BKN250

KSTL 192320Z 2000/2106 17010KT P6SM FEW040 BKN250

        FM200700 20006KT P6SM SCT060

        FM201200 23006KT P6SM FEW110

        FM201500 27008KT P6SM FEW110

        FM201900 29011G21KT P6SM FEW150

        FM210200 32006KT P6SM SKC

KDEC 192334Z 2000/2024 17012KT P6SM SCT035 BKN060

        FM200700 19009KT P6SM SCT050 BKN150

        FM201600 23011G18KT P6SM BKN060

KOWB 192320Z 2000/2024 14004KT P6SM FEW070 BKN150

        FM200100 15003KT P6SM FEW110 BKN200

        FM201000 19006KT P6SM VCTS BKN060CB

        FM201500 21009G17KT P6SM SCT050

        FM201900 22010G18KT P6SM VCTS BKN050CB

        FM202300 23010KT P6SM SCT250

KSUS 192320Z 2000/2024 17009KT P6SM SCT035 BKN250

        FM200300 VRB04KT P6SM FEW045 SCT060

        FM201500 26008KT P6SM FEW250

        FM202000 29010G18KT P6SM FEW250

TAF KBLV 200000Z 2000/2106 17010KT 9999 SCT050 BKN120 QNH2982INS

        BECMG 2014/2015 26010G15KT 9999 SCT080 QNH2980INS

        BECMG 2018/2019 30010KT 9000 -SHRA BKN070 520088 QNH2976INS

        BECMG 2101/2102 32006KT 9999 NSW SCT060 QNH2980INS TX33/2021Z TN25/2009Z


Winds Aloft



Pilot Reports

No pilot reports found for area.



Area Forecast



Significant Weather

WAUS43 KKCI 192045 CHIT WA 192045 AIRMET TANGO UPDT 3 FOR TURB AND LLWS VALID UNTIL 200300 AIRMET TURB...MO WI LM MI IL IN KY AR TN MS AL FROM 40N GRB TO FNT TO 20SSW DXO TO FWA TO CVG TO 60W HNN TO 60NE LOZ TO 30S VUZ TO 40S MEM TO 20SW DYR TO 20NE ARG TO 20SW AXC TO 20E BDF TO 30NW DLL TO 40N GRB MOD TURB BTN FL240 AND FL420. CONDS CONTG BYD 03Z ENDG 06-09Z. OTLK VALID 0300-0900Z...TURB ND SD NE MN IA MO IL BOUNDED BY 40N ABR-70SE FAR-20NW MCW-40WNW BDF-20E UIN-30NE MCI- 60ESE ONL-80S ABR-40N ABR MOD TURB BTN 020 AND 070. CONDS CONTG THRU 09Z.
WAUS44 KKCI 192045 DFWT WA 192045 AIRMET TANGO UPDT 3 FOR TURB VALID UNTIL 200300 AIRMET TURB...AR TN MS AL MO WI LM MI IL IN KY FROM 40N GRB TO FNT TO 20SSW DXO TO FWA TO CVG TO 60W HNN TO 60NE LOZ TO 30S VUZ TO 40S MEM TO 20SW DYR TO 20NE ARG TO 20SW AXC TO 20E BDF TO 30NW DLL TO 40N GRB MOD TURB BTN FL240 AND FL420. CONDS CONTG BYD 03Z ENDG 06-09Z.